sensor_id;sensor_type;location;lat;lon;timestamp;pressure;altitude;pressure_sealevel;temperature;humidity
9717;BME280;4897;43.570;27.832;2023-07-28T00:00:49;98916.69;;;14.40;100.00
9717;BME280;4897;43.570;27.832;2023-07-28T00:03:16;98870.56;;;14.01;100.00
9717;BME280;4897;43.570;27.832;2023-07-28T00:05:43;98906.88;;;14.31;100.00
9717;BME280;4897;43.570;27.832;2023-07-28T00:08:10;98908.16;;;14.45;100.00
9717;BME280;4897;43.570;27.832;2023-07-28T00:10:44;98909.97;;;14.36;100.00
9717;BME280;4897;43.570;27.832;2023-07-28T00:13:11;98921.78;;;14.43;100.00
9717;BME280;4897;43.570;27.832;2023-07-28T00:15:38;98923.66;;;14.51;100.00
9717;BME280;4897;43.570;27.832;2023-07-28T00:18:05;98924.09;;;14.38;100.00
9717;BME280;4897;43.570;27.832;2023-07-28T00:20:32;98921.44;;;14.46;100.00
9717;BME280;4897;43.570;27.832;2023-07-28T00:22:59;98933.56;;;14.50;100.00
9717;BME280;4897;43.570;27.832;2023-07-28T00:25:26;98920.06;;;14.42;100.00
9717;BME280;4897;43.570;27.832;2023-07-28T00:27:55;98929.00;;;14.43;100.00
9717;BME280;4897;43.570;27.832;2023-07-28T00:30:22;98932.19;;;14.46;100.00
9717;BME280;4897;43.570;27.832;2023-07-28T00:32:49;98938.25;;;14.48;100.00
9717;BME280;4897;43.570;27.832;2023-07-28T00:35:16;98933.00;;;14.38;100.00
9717;BME280;4897;43.570;27.832;2023-07-28T00:37:43;98944.97;;;14.44;100.00
9717;BME280;4897;43.570;27.832;2023-07-28T00:40:13;98930.78;;;14.34;100.00
9717;BME280;4897;43.570;27.832;2023-07-28T00:42:40;98938.41;;;14.21;100.00
9717;BME280;4897;43.570;27.832;2023-07-28T00:45:12;98944.16;;;14.26;100.00
9717;BME280;4897;43.570;27.832;2023-07-28T00:47:45;98909.38;;;13.99;100.00
9717;BME280;4897;43.570;27.832;2023-07-28T00:50:12;98935.84;;;14.11;100.00
9717;BME280;4897;43.570;27.832;2023-07-28T00:52:40;98944.38;;;14.07;100.00
9717;BME280;4897;43.570;27.832;2023-07-28T00:55:07;98945.06;;;14.09;100.00
9717;BME280;4897;43.570;27.832;2023-07-28T00:57:37;98918.69;;;13.87;100.00
9717;BME280;4897;43.570;27.832;2023-07-28T01:00:05;98953.06;;;14.01;100.00
9717;BME280;4897;43.570;27.832;2023-07-28T01:02:34;98954.03;;;14.00;100.00
9717;BME280;4897;43.570;27.832;2023-07-28T01:05:02;98929.06;;;13.82;100.00
9717;BME280;4897;43.570;27.832;2023-07-28T01:07:37;98948.19;;;14.04;100.00
9717;BME280;4897;43.570;27.832;2023-07-28T01:10:10;98944.31;;;13.99;100.00
9717;BME280;4897;43.570;27.832;2023-07-28T01:12:38;98934.66;;;13.88;100.00
9717;BME280;4897;43.570;27.832;2023-07-28T01:15:06;62273.31;;;-141.46;100.00
9717;BME280;4897;43.570;27.832;2023-07-28T01:17:34;62273.31;;;-141.46;100.00
9717;BME280;4897;43.570;27.832;2023-07-28T01:20:02;62273.31;;;-141.46;100.00
9717;BME280;4897;43.570;27.832;2023-07-28T01:22:45;62273.31;;;-141.46;100.00
9717;BME280;4897;43.570;27.832;2023-07-28T01:25:18;62273.31;;;-141.46;100.00
9717;BME280;4897;43.570;27.832;2023-07-28T01:27:51;62273.31;;;-141.46;100.00
9717;BME280;4897;43.570;27.832;2023-07-28T01:30:18;62273.31;;;-141.46;100.00
9717;BME280;4897;43.570;27.832;2023-07-28T01:32:47;62273.31;;;-141.46;100.00
9717;BME280;4897;43.570;27.832;2023-07-28T01:35:16;62273.31;;;-141.46;100.00
9717;BME280;4897;43.570;27.832;2023-07-28T01:37:44;62273.31;;;-141.46;100.00
9717;BME280;4897;43.570;27.832;2023-07-28T01:40:16;62273.31;;;-141.46;100.00
9717;BME280;4897;43.570;27.832;2023-07-28T01:42:43;62273.31;;;-141.46;100.00
9717;BME280;4897;43.570;27.832;2023-07-28T01:45:11;62273.31;;;-141.46;100.00
9717;BME280;4897;43.570;27.832;2023-07-28T01:47:38;62273.31;;;-141.46;100.00
9717;BME280;4897;43.570;27.832;2023-07-28T01:50:05;62273.31;;;-141.46;100.00
9717;BME280;4897;43.570;27.832;2023-07-28T01:52:33;62273.31;;;-141.46;100.00
9717;BME280;4897;43.570;27.832;2023-07-28T01:55:00;62273.31;;;-141.46;100.00
9717;BME280;4897;43.570;27.832;2023-07-28T01:57:32;62273.31;;;-141.46;100.00
9717;BME280;4897;43.570;27.832;2023-07-28T01:59:59;62273.31;;;-141.46;100.00
9717;BME280;4897;43.570;27.832;2023-07-28T02:02:28;62273.31;;;-141.46;100.00
9717;BME280;4897;43.570;27.832;2023-07-28T02:04:55;62273.31;;;-141.46;100.00
9717;BME280;4897;43.570;27.832;2023-07-28T02:07:22;62273.31;;;-141.46;100.00
9717;BME280;4897;43.570;27.832;2023-07-28T02:09:49;62273.31;;;-141.46;100.00
9717;BME280;4897;43.570;27.832;2023-07-28T02:12:15;62273.31;;;-141.46;100.00
9717;BME280;4897;43.570;27.832;2023-07-28T02:14:42;62273.31;;;-141.46;100.00
9717;BME280;4897;43.570;27.832;2023-07-28T02:17:09;62273.31;;;-141.46;100.00
9717;BME280;4897;43.570;27.832;2023-07-28T02:19:38;62273.31;;;-141.46;100.00
9717;BME280;4897;43.570;27.832;2023-07-28T02:22:08;62273.31;;;-141.46;100.00
9717;BME280;4897;43.570;27.832;2023-07-28T02:24:36;62273.31;;;-141.46;100.00
9717;BME280;4897;43.570;27.832;2023-07-28T02:27:04;62273.31;;;-141.46;100.00
9717;BME280;4897;43.570;27.832;2023-07-28T02:29:31;62273.31;;;-141.46;100.00
9717;BME280;4897;43.570;27.832;2023-07-28T02:31:58;62273.31;;;-141.46;100.00
9717;BME280;4897;43.570;27.832;2023-07-28T02:34:25;62273.31;;;-141.46;100.00
9717;BME280;4897;43.570;27.832;2023-07-28T02:36:57;62273.31;;;-141.46;100.00
9717;BME280;4897;43.570;27.832;2023-07-28T02:39:24;62273.31;;;-141.46;100.00
9717;BME280;4897;43.570;27.832;2023-07-28T02:41:51;62273.31;;;-141.46;100.00
9717;BME280;4897;43.570;27.832;2023-07-28T02:44:20;62273.31;;;-141.46;100.00
9717;BME280;4897;43.570;27.832;2023-07-28T02:46:50;62273.31;;;-141.46;100.00
9717;BME280;4897;43.570;27.832;2023-07-28T02:49:18;62273.31;;;-141.46;100.00
9717;BME280;4897;43.570;27.832;2023-07-28T02:51:48;62273.31;;;-141.46;100.00
9717;BME280;4897;43.570;27.832;2023-07-28T02:54:19;62273.31;;;-141.46;100.00
9717;BME280;4897;43.570;27.832;2023-07-28T02:56:46;62273.31;;;-141.46;100.00
9717;BME280;4897;43.570;27.832;2023-07-28T02:59:13;62273.31;;;-141.46;100.00
9717;BME280;4897;43.570;27.832;2023-07-28T03:01:40;62273.31;;;-141.46;100.00
9717;BME280;4897;43.570;27.832;2023-07-28T03:04:07;62273.31;;;-141.46;100.00
9717;BME280;4897;43.570;27.832;2023-07-28T03:06:34;62273.31;;;-141.46;100.00
9717;BME280;4897;43.570;27.832;2023-07-28T03:09:01;62273.31;;;-141.46;100.00
9717;BME280;4897;43.570;27.832;2023-07-28T03:11:29;62273.31;;;-141.46;100.00
9717;BME280;4897;43.570;27.832;2023-07-28T03:13:56;62273.31;;;-141.46;100.00
9717;BME280;4897;43.570;27.832;2023-07-28T03:16:23;62273.31;;;-141.46;100.00
9717;BME280;4897;43.570;27.832;2023-07-28T03:18:50;62273.31;;;-141.46;100.00
9717;BME280;4897;43.570;27.832;2023-07-28T03:21:17;62273.31;;;-141.46;100.00
9717;BME280;4897;43.570;27.832;2023-07-28T03:23:44;62273.31;;;-141.46;100.00
9717;BME280;4897;43.570;27.832;2023-07-28T03:26:14;62273.31;;;-141.46;100.00
9717;BME280;4897;43.570;27.832;2023-07-28T03:28:42;62273.31;;;-141.46;100.00
9717;BME280;4897;43.570;27.832;2023-07-28T03:31:09;62273.31;;;-141.46;100.00
9717;BME280;4897;43.570;27.832;2023-07-28T03:33:36;62273.31;;;-141.46;100.00
9717;BME280;4897;43.570;27.832;2023-07-28T03:36:03;62273.31;;;-141.46;100.00
9717;BME280;4897;43.570;27.832;2023-07-28T03:38:30;62273.31;;;-141.46;100.00
9717;BME280;4897;43.570;27.832;2023-07-28T03:40:57;62273.31;;;-141.46;100.00
9717;BME280;4897;43.570;27.832;2023-07-28T03:43:24;62273.31;;;-141.46;100.00
9717;BME280;4897;43.570;27.832;2023-07-28T03:45:52;62273.31;;;-141.46;100.00
9717;BME280;4897;43.570;27.832;2023-07-28T03:48:19;62273.31;;;-141.46;100.00
9717;BME280;4897;43.570;27.832;2023-07-28T03:50:46;62273.31;;;-141.46;100.00
9717;BME280;4897;43.570;27.832;2023-07-28T03:53:13;62273.31;;;-141.46;100.00
9717;BME280;4897;43.570;27.832;2023-07-28T03:55:40;62273.31;;;-141.46;100.00
9717;BME280;4897;43.570;27.832;2023-07-28T03:58:10;62273.31;;;-141.46;100.00
9717;BME280;4897;43.570;27.832;2023-07-28T04:00:39;62273.31;;;-141.46;100.00
9717;BME280;4897;43.570;27.832;2023-07-28T04:03:07;62273.31;;;-141.46;100.00
9717;BME280;4897;43.570;27.832;2023-07-28T04:05:36;62273.31;;;-141.46;100.00
9717;BME280;4897;43.570;27.832;2023-07-28T04:08:04;62273.31;;;-141.46;100.00
9717;BME280;4897;43.570;27.832;2023-07-28T04:10:31;62273.31;;;-141.46;100.00
9717;BME280;4897;43.570;27.832;2023-07-28T04:12:58;62273.31;;;-141.46;100.00
9717;BME280;4897;43.570;27.832;2023-07-28T04:15:25;62273.31;;;-141.46;100.00
9717;BME280;4897;43.570;27.832;2023-07-28T04:17:52;62273.31;;;-141.46;100.00
9717;BME280;4897;43.570;27.832;2023-07-28T04:20:20;62273.31;;;-141.46;100.00
9717;BME280;4897;43.570;27.832;2023-07-28T04:22:47;62273.31;;;-141.46;100.00
9717;BME280;4897;43.570;27.832;2023-07-28T04:25:14;62273.31;;;-141.46;100.00
9717;BME280;4897;43.570;27.832;2023-07-28T04:27:47;62273.31;;;-141.46;100.00
9717;BME280;4897;43.570;27.832;2023-07-28T04:30:14;62273.31;;;-141.46;100.00
9717;BME280;4897;43.570;27.832;2023-07-28T04:32:41;62273.31;;;-141.46;100.00
9717;BME280;4897;43.570;27.832;2023-07-28T04:35:07;62273.31;;;-141.46;100.00
9717;BME280;4897;43.570;27.832;2023-07-28T04:37:36;62273.31;;;-141.46;100.00
9717;BME280;4897;43.570;27.832;2023-07-28T04:40:04;62273.31;;;-141.46;100.00
9717;BME280;4897;43.570;27.832;2023-07-28T04:42:31;62273.31;;;-141.46;100.00
9717;BME280;4897;43.570;27.832;2023-07-28T04:44:58;62273.31;;;-141.46;100.00
9717;BME280;4897;43.570;27.832;2023-07-28T04:47:25;62273.31;;;-141.46;100.00
9717;BME280;4897;43.570;27.832;2023-07-28T04:49:52;62273.31;;;-141.46;100.00
9717;BME280;4897;43.570;27.832;2023-07-28T04:52:19;62273.31;;;-141.46;100.00
9717;BME280;4897;43.570;27.832;2023-07-28T04:54:48;62273.31;;;-141.46;100.00
9717;BME280;4897;43.570;27.832;2023-07-28T04:57:15;62273.31;;;-141.46;100.00
9717;BME280;4897;43.570;27.832;2023-07-28T04:59:43;62273.31;;;-141.46;100.00
9717;BME280;4897;43.570;27.832;2023-07-28T05:02:10;62273.31;;;-141.46;100.00
9717;BME280;4897;43.570;27.832;2023-07-28T05:04:37;62273.31;;;-141.46;100.00
9717;BME280;4897;43.570;27.832;2023-07-28T05:07:05;62273.31;;;-141.46;100.00
9717;BME280;4897;43.570;27.832;2023-07-28T05:09:32;62273.31;;;-141.46;100.00
9717;BME280;4897;43.570;27.832;2023-07-28T05:12:01;62273.31;;;-141.46;100.00
9717;BME280;4897;43.570;27.832;2023-07-28T05:14:29;62273.31;;;-141.46;100.00
9717;BME280;4897;43.570;27.832;2023-07-28T05:16:56;62273.31;;;-141.46;100.00
9717;BME280;4897;43.570;27.832;2023-07-28T05:19:23;62273.31;;;-141.46;100.00
9717;BME280;4897;43.570;27.832;2023-07-28T05:21:50;62273.31;;;-141.46;100.00
9717;BME280;4897;43.570;27.832;2023-07-28T05:24:16;62273.31;;;-141.46;100.00
9717;BME280;4897;43.570;27.832;2023-07-28T05:26:44;62273.31;;;-141.46;100.00
9717;BME280;4897;43.570;27.832;2023-07-28T05:29:13;62273.31;;;-141.46;100.00
9717;BME280;4897;43.570;27.832;2023-07-28T05:31:40;62273.31;;;-141.46;100.00
9717;BME280;4897;43.570;27.832;2023-07-28T05:34:07;62273.31;;;-141.46;100.00
9717;BME280;4897;43.570;27.832;2023-07-28T05:36:37;62273.31;;;-141.46;100.00
9717;BME280;4897;43.570;27.832;2023-07-28T05:39:04;62273.31;;;-141.46;100.00
9717;BME280;4897;43.570;27.832;2023-07-28T05:41:31;62273.31;;;-141.46;100.00
9717;BME280;4897;43.570;27.832;2023-07-28T05:43:59;62273.31;;;-141.46;100.00
9717;BME280;4897;43.570;27.832;2023-07-28T05:46:27;62273.31;;;-141.46;100.00
9717;BME280;4897;43.570;27.832;2023-07-28T05:48:54;62273.31;;;-141.46;100.00
9717;BME280;4897;43.570;27.832;2023-07-28T05:51:21;62273.31;;;-141.46;100.00
9717;BME280;4897;43.570;27.832;2023-07-28T05:53:49;62273.31;;;-141.46;100.00
9717;BME280;4897;43.570;27.832;2023-07-28T05:56:16;62273.31;;;-141.46;100.00
9717;BME280;4897;43.570;27.832;2023-07-28T05:58:44;62273.31;;;-141.46;100.00
9717;BME280;4897;43.570;27.832;2023-07-28T06:01:11;62273.31;;;-141.46;100.00
9717;BME280;4897;43.570;27.832;2023-07-28T06:03:39;62273.31;;;-141.46;100.00
9717;BME280;4897;43.570;27.832;2023-07-28T06:06:06;62273.31;;;-141.46;100.00
9717;BME280;4897;43.570;27.832;2023-07-28T06:08:34;62273.31;;;-141.46;100.00
9717;BME280;4897;43.570;27.832;2023-07-28T06:11:03;62273.31;;;-141.46;100.00
9717;BME280;4897;43.570;27.832;2023-07-28T06:13:30;62273.31;;;-141.46;100.00
9717;BME280;4897;43.570;27.832;2023-07-28T06:15:57;62273.31;;;-141.46;100.00
9717;BME280;4897;43.570;27.832;2023-07-28T06:18:24;62273.31;;;-141.46;100.00
9717;BME280;4897;43.570;27.832;2023-07-28T06:20:53;62273.31;;;-141.46;100.00
9717;BME280;4897;43.570;27.832;2023-07-28T06:23:19;62273.31;;;-141.46;100.00
9717;BME280;4897;43.570;27.832;2023-07-28T06:25:46;62273.31;;;-141.46;100.00
9717;BME280;4897;43.570;27.832;2023-07-28T06:28:13;62273.31;;;-141.46;100.00
9717;BME280;4897;43.570;27.832;2023-07-28T06:30:40;62273.31;;;-141.46;100.00
9717;BME280;4897;43.570;27.832;2023-07-28T06:33:11;62273.31;;;-141.46;100.00
9717;BME280;4897;43.570;27.832;2023-07-28T06:35:40;62273.31;;;-141.46;100.00
9717;BME280;4897;43.570;27.832;2023-07-28T06:38:09;62273.31;;;-141.46;100.00
9717;BME280;4897;43.570;27.832;2023-07-28T06:40:39;62273.31;;;-141.46;100.00
9717;BME280;4897;43.570;27.832;2023-07-28T06:43:06;62273.31;;;-141.46;100.00
9717;BME280;4897;43.570;27.832;2023-07-28T06:45:33;62273.31;;;-141.46;100.00
9717;BME280;4897;43.570;27.832;2023-07-28T06:48:00;62273.31;;;-141.46;100.00
9717;BME280;4897;43.570;27.832;2023-07-28T06:50:27;62273.31;;;-141.46;100.00
9717;BME280;4897;43.570;27.832;2023-07-28T06:52:54;62273.31;;;-141.46;100.00
9717;BME280;4897;43.570;27.832;2023-07-28T06:55:22;62273.31;;;-141.46;100.00
9717;BME280;4897;43.570;27.832;2023-07-28T06:57:49;62273.31;;;-141.46;100.00
9717;BME280;4897;43.570;27.832;2023-07-28T07:00:16;62273.31;;;-141.46;100.00
9717;BME280;4897;43.570;27.832;2023-07-28T07:02:44;62273.31;;;-141.46;100.00
9717;BME280;4897;43.570;27.832;2023-07-28T07:05:11;62273.31;;;-141.46;100.00
9717;BME280;4897;43.570;27.832;2023-07-28T07:07:39;62273.31;;;-141.46;100.00
9717;BME280;4897;43.570;27.832;2023-07-28T07:10:07;62273.31;;;-141.46;100.00
9717;BME280;4897;43.570;27.832;2023-07-28T07:12:36;62273.31;;;-141.46;100.00
9717;BME280;4897;43.570;27.832;2023-07-28T07:15:03;62273.31;;;-141.46;100.00
9717;BME280;4897;43.570;27.832;2023-07-28T07:17:31;62273.31;;;-141.46;100.00
9717;BME280;4897;43.570;27.832;2023-07-28T07:19:58;62273.31;;;-141.46;100.00
9717;BME280;4897;43.570;27.832;2023-07-28T07:22:25;62273.31;;;-141.46;100.00
9717;BME280;4897;43.570;27.832;2023-07-28T07:24:53;62273.31;;;-141.46;100.00
9717;BME280;4897;43.570;27.832;2023-07-28T07:27:22;62273.31;;;-141.46;100.00
9717;BME280;4897;43.570;27.832;2023-07-28T07:29:52;62273.31;;;-141.46;100.00
9717;BME280;4897;43.570;27.832;2023-07-28T07:32:18;62273.31;;;-141.46;100.00
9717;BME280;4897;43.570;27.832;2023-07-28T07:34:45;62273.31;;;-141.46;100.00
9717;BME280;4897;43.570;27.832;2023-07-28T07:37:12;62273.31;;;-141.46;100.00
9717;BME280;4897;43.570;27.832;2023-07-28T07:39:39;62273.31;;;-141.46;100.00
9717;BME280;4897;43.570;27.832;2023-07-28T07:42:10;62273.31;;;-141.46;100.00
9717;BME280;4897;43.570;27.832;2023-07-28T07:44:37;62273.31;;;-141.46;100.00
9717;BME280;4897;43.570;27.832;2023-07-28T07:47:13;62273.31;;;-141.46;100.00
9717;BME280;4897;43.570;27.832;2023-07-28T07:49:41;62273.31;;;-141.46;100.00
9717;BME280;4897;43.570;27.832;2023-07-28T07:52:08;62273.31;;;-141.46;100.00
9717;BME280;4897;43.570;27.832;2023-07-28T07:54:36;62273.31;;;-141.46;100.00
9717;BME280;4897;43.570;27.832;2023-07-28T07:57:08;62273.31;;;-141.46;100.00
9717;BME280;4897;43.570;27.832;2023-07-28T07:59:38;62273.31;;;-141.46;100.00
9717;BME280;4897;43.570;27.832;2023-07-28T08:02:06;62273.31;;;-141.46;100.00
9717;BME280;4897;43.570;27.832;2023-07-28T08:04:34;62273.31;;;-141.46;100.00
9717;BME280;4897;43.570;27.832;2023-07-28T08:07:01;62273.31;;;-141.46;100.00
9717;BME280;4897;43.570;27.832;2023-07-28T08:09:30;62273.31;;;-141.46;100.00
9717;BME280;4897;43.570;27.832;2023-07-28T08:11:57;62273.31;;;-141.46;100.00
9717;BME280;4897;43.570;27.832;2023-07-28T08:14:24;62273.31;;;-141.46;100.00
9717;BME280;4897;43.570;27.832;2023-07-28T08:16:51;62273.31;;;-141.46;100.00
9717;BME280;4897;43.570;27.832;2023-07-28T08:19:18;62273.31;;;-141.46;100.00
9717;BME280;4897;43.570;27.832;2023-07-28T08:21:46;62273.31;;;-141.46;100.00
9717;BME280;4897;43.570;27.832;2023-07-28T08:24:13;62273.31;;;-141.46;100.00
9717;BME280;4897;43.570;27.832;2023-07-28T08:26:41;62273.31;;;-141.46;100.00
9717;BME280;4897;43.570;27.832;2023-07-28T08:29:08;62273.31;;;-141.46;100.00
9717;BME280;4897;43.570;27.832;2023-07-28T08:31:35;62273.31;;;-141.46;100.00
9717;BME280;4897;43.570;27.832;2023-07-28T08:34:02;62273.31;;;-141.46;100.00
9717;BME280;4897;43.570;27.832;2023-07-28T08:36:29;62273.31;;;-141.46;100.00
9717;BME280;4897;43.570;27.832;2023-07-28T08:38:58;62273.31;;;-141.46;100.00
9717;BME280;4897;43.570;27.832;2023-07-28T08:41:27;62273.31;;;-141.46;100.00
9717;BME280;4897;43.570;27.832;2023-07-28T08:43:54;62273.31;;;-141.46;100.00
9717;BME280;4897;43.570;27.832;2023-07-28T08:46:24;62273.31;;;-141.46;100.00
9717;BME280;4897;43.570;27.832;2023-07-28T08:48:51;62273.31;;;-141.46;100.00
9717;BME280;4897;43.570;27.832;2023-07-28T08:51:18;62273.31;;;-141.46;100.00
9717;BME280;4897;43.570;27.832;2023-07-28T08:53:48;62273.31;;;-141.46;100.00
9717;BME280;4897;43.570;27.832;2023-07-28T08:56:16;62273.31;;;-141.46;100.00
9717;BME280;4897;43.570;27.832;2023-07-28T08:58:44;62273.31;;;-141.46;100.00
9717;BME280;4897;43.570;27.832;2023-07-28T09:01:12;62273.31;;;-141.46;100.00
9717;BME280;4897;43.570;27.832;2023-07-28T09:03:39;62273.31;;;-141.46;100.00
9717;BME280;4897;43.570;27.832;2023-07-28T09:06:07;62273.31;;;-141.46;100.00
9717;BME280;4897;43.570;27.832;2023-07-28T09:08:35;62273.31;;;-141.46;100.00
9717;BME280;4897;43.570;27.832;2023-07-28T09:11:04;62273.31;;;-141.46;100.00
9717;BME280;4897;43.570;27.832;2023-07-28T09:13:39;62273.31;;;-141.46;100.00
9717;BME280;4897;43.570;27.832;2023-07-28T09:16:16;62273.31;;;-141.46;100.00
9717;BME280;4897;43.570;27.832;2023-07-28T09:18:43;62273.31;;;-141.46;100.00
9717;BME280;4897;43.570;27.832;2023-07-28T09:21:16;62273.31;;;-141.46;100.00
9717;BME280;4897;43.570;27.832;2023-07-28T09:23:44;62273.31;;;-141.46;100.00
9717;BME280;4897;43.570;27.832;2023-07-28T09:26:12;62273.31;;;-141.46;100.00
9717;BME280;4897;43.570;27.832;2023-07-28T09:28:40;62273.31;;;-141.46;100.00
9717;BME280;4897;43.570;27.832;2023-07-28T09:31:08;62273.31;;;-141.46;100.00
9717;BME280;4897;43.570;27.832;2023-07-28T09:33:38;62273.31;;;-141.46;100.00
9717;BME280;4897;43.570;27.832;2023-07-28T09:36:09;62273.31;;;-141.46;100.00
9717;BME280;4897;43.570;27.832;2023-07-28T09:38:37;62273.31;;;-141.46;100.00
9717;BME280;4897;43.570;27.832;2023-07-28T09:41:07;62273.31;;;-141.46;100.00
9717;BME280;4897;43.570;27.832;2023-07-28T09:43:36;62273.31;;;-141.46;100.00
9717;BME280;4897;43.570;27.832;2023-07-28T09:46:07;62273.31;;;-141.46;100.00
9717;BME280;4897;43.570;27.832;2023-07-28T09:48:37;62273.31;;;-141.46;100.00
9717;BME280;4897;43.570;27.832;2023-07-28T09:51:08;62273.31;;;-141.46;100.00
9717;BME280;4897;43.570;27.832;2023-07-28T09:53:45;62273.31;;;-141.46;100.00
9717;BME280;4897;43.570;27.832;2023-07-28T09:56:19;62273.31;;;-141.46;100.00
9717;BME280;4897;43.570;27.832;2023-07-28T09:58:52;62273.31;;;-141.46;100.00
9717;BME280;4897;43.570;27.832;2023-07-28T10:01:26;62273.31;;;-141.46;100.00
9717;BME280;4897;43.570;27.832;2023-07-28T10:03:56;62273.31;;;-141.46;100.00
9717;BME280;4897;43.570;27.832;2023-07-28T10:06:24;62273.31;;;-141.46;100.00
9717;BME280;4897;43.570;27.832;2023-07-28T10:08:52;62273.31;;;-141.46;100.00
9717;BME280;4897;43.570;27.832;2023-07-28T10:11:20;62273.31;;;-141.46;100.00
9717;BME280;4897;43.570;27.832;2023-07-28T10:13:50;62273.31;;;-141.46;100.00
9717;BME280;4897;43.570;27.832;2023-07-28T10:16:17;62273.31;;;-141.46;100.00
9717;BME280;4897;43.570;27.832;2023-07-28T10:18:53;62273.31;;;-141.46;100.00
9717;BME280;4897;43.570;27.832;2023-07-28T10:21:21;62273.31;;;-141.46;100.00
9717;BME280;4897;43.570;27.832;2023-07-28T10:23:54;62273.31;;;-141.46;100.00
9717;BME280;4897;43.570;27.832;2023-07-28T10:26:31;62273.31;;;-141.46;100.00
9717;BME280;4897;43.570;27.832;2023-07-28T10:29:08;62273.31;;;-141.46;100.00
9717;BME280;4897;43.570;27.832;2023-07-28T10:31:36;62273.31;;;-141.46;100.00
9717;BME280;4897;43.570;27.832;2023-07-28T10:34:04;62273.31;;;-141.46;100.00
9717;BME280;4897;43.570;27.832;2023-07-28T10:36:34;62273.31;;;-141.46;100.00
9717;BME280;4897;43.570;27.832;2023-07-28T10:39:12;62273.31;;;-141.46;100.00
9717;BME280;4897;43.570;27.832;2023-07-28T10:41:41;62273.31;;;-141.46;100.00
9717;BME280;4897;43.570;27.832;2023-07-28T10:44:26;62273.31;;;-141.46;100.00
9717;BME280;4897;43.570;27.832;2023-07-28T10:46:54;62273.31;;;-141.46;100.00
9717;BME280;4897;43.570;27.832;2023-07-28T10:49:23;62273.31;;;-141.46;100.00
9717;BME280;4897;43.570;27.832;2023-07-28T10:51:51;62273.31;;;-141.46;100.00
9717;BME280;4897;43.570;27.832;2023-07-28T10:54:18;62273.31;;;-141.46;100.00
9717;BME280;4897;43.570;27.832;2023-07-28T10:56:46;62273.31;;;-141.46;100.00
9717;BME280;4897;43.570;27.832;2023-07-28T10:59:14;62273.31;;;-141.46;100.00
9717;BME280;4897;43.570;27.832;2023-07-28T11:01:42;62273.31;;;-141.46;100.00
9717;BME280;4897;43.570;27.832;2023-07-28T11:04:10;62273.31;;;-141.46;100.00
9717;BME280;4897;43.570;27.832;2023-07-28T11:06:41;62273.31;;;-141.46;100.00
9717;BME280;4897;43.570;27.832;2023-07-28T11:09:09;62273.31;;;-141.46;100.00
9717;BME280;4897;43.570;27.832;2023-07-28T11:11:37;62273.31;;;-141.46;100.00
9717;BME280;4897;43.570;27.832;2023-07-28T11:14:05;62273.31;;;-141.46;100.00
9717;BME280;4897;43.570;27.832;2023-07-28T11:16:33;62273.31;;;-141.46;100.00
9717;BME280;4897;43.570;27.832;2023-07-28T11:19:01;62273.31;;;-141.46;100.00
9717;BME280;4897;43.570;27.832;2023-07-28T11:21:29;62273.31;;;-141.46;100.00
9717;BME280;4897;43.570;27.832;2023-07-28T11:23:57;62273.31;;;-141.46;100.00
9717;BME280;4897;43.570;27.832;2023-07-28T11:26:24;62273.31;;;-141.46;100.00
9717;BME280;4897;43.570;27.832;2023-07-28T11:28:53;62273.31;;;-141.46;100.00
9717;BME280;4897;43.570;27.832;2023-07-28T11:31:23;62273.31;;;-141.46;100.00
9717;BME280;4897;43.570;27.832;2023-07-28T11:33:52;62273.31;;;-141.46;100.00
9717;BME280;4897;43.570;27.832;2023-07-28T11:36:23;62273.31;;;-141.46;100.00
9717;BME280;4897;43.570;27.832;2023-07-28T11:38:50;62273.31;;;-141.46;100.00
9717;BME280;4897;43.570;27.832;2023-07-28T11:41:20;62273.31;;;-141.46;100.00
9717;BME280;4897;43.570;27.832;2023-07-28T11:43:48;62273.31;;;-141.46;100.00
9717;BME280;4897;43.570;27.832;2023-07-28T11:46:35;62273.31;;;-141.46;100.00
9717;BME280;4897;43.570;27.832;2023-07-28T11:49:09;62273.31;;;-141.46;100.00
9717;BME280;4897;43.570;27.832;2023-07-28T11:51:38;62273.31;;;-141.46;100.00
9717;BME280;4897;43.570;27.832;2023-07-28T11:54:10;62273.31;;;-141.46;100.00
9717;BME280;4897;43.570;27.832;2023-07-28T11:56:39;62273.31;;;-141.46;100.00
9717;BME280;4897;43.570;27.832;2023-07-28T11:59:06;62273.31;;;-141.46;100.00
9717;BME280;4897;43.570;27.832;2023-07-28T12:04:23;62273.31;;;-141.46;100.00
9717;BME280;4897;43.570;27.832;2023-07-28T12:07:10;62273.31;;;-141.46;100.00
9717;BME280;4897;43.570;27.832;2023-07-28T12:09:50;62273.31;;;-141.46;100.00
9717;BME280;4897;43.570;27.832;2023-07-28T12:12:27;62273.31;;;-141.46;100.00
9717;BME280;4897;43.570;27.832;2023-07-28T12:14:55;62273.31;;;-141.46;100.00
9717;BME280;4897;43.570;27.832;2023-07-28T12:17:25;62273.31;;;-141.46;100.00
9717;BME280;4897;43.570;27.832;2023-07-28T12:20:01;62273.31;;;-141.46;100.00
9717;BME280;4897;43.570;27.832;2023-07-28T12:22:32;62273.31;;;-141.46;100.00
9717;BME280;4897;43.570;27.832;2023-07-28T12:24:59;62273.31;;;-141.46;100.00
9717;BME280;4897;43.570;27.832;2023-07-28T12:27:28;62273.31;;;-141.46;100.00
9717;BME280;4897;43.570;27.832;2023-07-28T12:29:55;62273.31;;;-141.46;100.00
9717;BME280;4897;43.570;27.832;2023-07-28T12:32:22;62273.31;;;-141.46;100.00
9717;BME280;4897;43.570;27.832;2023-07-28T12:34:49;62273.31;;;-141.46;100.00
9717;BME280;4897;43.570;27.832;2023-07-28T12:37:17;62273.31;;;-141.46;100.00
9717;BME280;4897;43.570;27.832;2023-07-28T12:39:44;62273.31;;;-141.46;100.00
9717;BME280;4897;43.570;27.832;2023-07-28T12:42:12;62273.31;;;-141.46;100.00
9717;BME280;4897;43.570;27.832;2023-07-28T12:44:47;62273.31;;;-141.46;100.00
9717;BME280;4897;43.570;27.832;2023-07-28T12:47:35;62273.31;;;-141.46;100.00
9717;BME280;4897;43.570;27.832;2023-07-28T12:50:36;62273.31;;;-141.46;100.00
9717;BME280;4897;43.570;27.832;2023-07-28T12:53:36;62273.31;;;-141.46;100.00